createdAt,value
2017-07-11T05:31:53.471Z,3032
2017-07-11T05:32:18.957Z,2360
2017-07-11T05:32:44.434Z,3596
2017-07-11T05:33:09.884Z,3840
2017-07-11T05:33:35.370Z,3904
2017-07-11T05:34:00.841Z,3988
2017-07-11T05:34:26.273Z,3040
2017-07-11T05:34:51.742Z,4464
2017-07-11T05:35:17.192Z,4392
2017-07-11T05:35:42.705Z,4028
2017-07-11T05:36:08.129Z,3892
2017-07-11T05:36:33.597Z,5216
2017-07-11T05:36:59.066Z,4204
2017-07-11T05:37:24.570Z,4844
2017-07-11T05:37:50.179Z,4344
2017-07-11T05:38:15.628Z,3056
2017-07-11T05:38:41.143Z,2856
2017-07-11T05:39:06.589Z,2672
2017-07-11T05:39:32.065Z,2536
2017-07-11T05:39:57.523Z,2432
2017-07-11T05:40:22.955Z,2464
2017-07-11T05:40:48.425Z,2596
2017-07-11T05:41:13.960Z,2792
2017-07-11T05:41:39.411Z,2988
2017-07-11T05:42:04.880Z,3304
2017-07-11T05:42:30.324Z,3776
2017-07-11T05:42:55.749Z,3912
2017-07-11T05:43:21.230Z,3936
2017-07-11T05:43:46.706Z,4132
2017-07-11T05:44:12.192Z,3756
2017-07-11T05:44:37.691Z,3792
2017-07-11T05:45:03.168Z,4076
2017-07-11T05:45:28.651Z,4196
2017-07-11T05:45:54.167Z,3964
2017-07-11T05:46:19.664Z,3792
2017-07-11T05:46:45.174Z,5124
2017-07-11T05:47:10.613Z,4300
2017-07-11T05:47:36.082Z,4140
2017-07-11T05:48:01.555Z,3208
2017-07-11T05:48:27.022Z,3028
2017-07-11T05:48:52.490Z,3024
2017-07-11T05:49:17.975Z,3216
2017-07-11T05:49:43.436Z,3596
2017-07-11T05:50:08.914Z,4116
2017-07-11T05:50:34.377Z,4848
2017-07-11T05:50:59.830Z,4972
2017-07-11T05:51:25.295Z,4788
2017-07-11T05:51:50.801Z,4296
2017-07-11T05:52:16.314Z,3928
2017-07-11T05:52:42.028Z,3920
2017-07-11T05:53:07.570Z,4256
2017-07-11T05:53:33.083Z,4284
2017-07-11T05:53:58.648Z,4056
2017-07-11T05:54:24.079Z,3792
2017-07-11T05:54:49.531Z,3672
2017-07-11T05:55:15.037Z,3920
2017-07-11T05:55:40.515Z,4080
2017-07-11T05:56:05.978Z,4320
2017-07-11T05:56:31.514Z,4412
2017-07-11T05:56:56.977Z,4692
2017-07-11T05:57:22.487Z,4720
2017-07-11T05:57:48.058Z,4724
2017-07-11T05:58:13.514Z,4348
2017-07-11T05:58:38.969Z,3924
2017-07-11T05:59:04.452Z,3592
2017-07-11T05:59:29.922Z,3192
2017-07-11T05:59:55.385Z,2908
2017-07-11T06:00:20.840Z,2652
2017-07-11T06:00:46.299Z,2592
2017-07-11T06:01:11.742Z,2432
2017-07-11T06:01:37.193Z,2372
2017-07-11T06:02:02.671Z,2240
2017-07-11T06:02:28.129Z,2220
2017-07-11T06:02:53.614Z,2308
2017-07-11T06:03:19.133Z,2276
2017-07-11T06:03:44.583Z,2332
2017-07-11T06:04:10.034Z,2372
2017-07-11T06:04:35.482Z,2376
2017-07-11T06:05:00.941Z,2412
2017-07-11T06:05:26.420Z,2564
2017-07-11T06:05:51.866Z,2568
2017-07-11T06:06:17.331Z,2504
2017-07-11T06:06:42.798Z,2460
2017-07-11T06:07:08.292Z,2620
2017-07-11T06:07:33.736Z,2656
2017-07-11T06:07:59.248Z,2612
2017-07-11T06:08:24.737Z,2592
2017-07-11T06:08:50.220Z,2652
2017-07-11T06:09:15.677Z,2852
2017-07-11T06:09:41.157Z,3516
2017-07-11T06:10:06.635Z,4412
2017-07-11T06:10:32.108Z,4596
2017-07-11T06:10:57.566Z,4852
2017-07-11T06:11:23.065Z,4376
2017-07-11T06:11:48.557Z,3708
2017-07-11T06:12:14.035Z,3512
2017-07-11T06:12:39.518Z,3480
2017-07-11T06:13:05.001Z,3840
2017-07-11T06:13:30.484Z,4048
2017-07-11T06:13:55.955Z,3976
2017-07-11T06:14:21.432Z,4200
2017-07-11T06:14:46.892Z,3888
2017-07-11T06:15:12.369Z,3284
2017-07-11T06:15:37.826Z,2628
2017-07-11T06:16:03.282Z,2424
2017-07-11T06:16:28.765Z,2800
2017-07-11T06:16:54.237Z,3148
2017-07-11T06:17:19.707Z,3396
2017-07-11T06:17:45.248Z,4044
2017-07-11T06:18:10.718Z,3736
2017-07-11T06:18:36.203Z,2896
2017-07-11T06:19:01.680Z,3068
2017-07-11T06:19:27.154Z,2824
2017-07-11T06:19:52.603Z,2204
2017-07-11T06:20:18.059Z,2144
2017-07-11T06:20:43.545Z,2048
2017-07-11T06:21:09.029Z,2124
2017-07-11T06:21:34.510Z,2328
2017-07-11T06:21:59.995Z,2680
2017-07-11T06:22:25.465Z,2840
2017-07-11T06:22:50.931Z,2864
2017-07-11T06:23:16.416Z,3332
2017-07-11T06:23:41.897Z,3532
2017-07-11T06:24:07.356Z,3128
2017-07-11T06:24:32.822Z,2780
2017-07-11T06:24:58.361Z,2308
2017-07-11T06:25:23.809Z,2032
2017-07-11T06:25:49.303Z,1984
2017-07-11T06:26:14.795Z,1968
2017-07-11T06:26:40.293Z,1944
2017-07-11T06:27:05.781Z,2072
2017-07-11T06:27:31.253Z,2044
2017-07-11T06:27:56.738Z,2160
2017-07-11T06:28:22.211Z,2096
2017-07-11T06:28:47.688Z,2160
2017-07-11T06:29:13.161Z,2404
2017-07-11T06:29:38.654Z,2336
2017-07-11T06:30:04.098Z,2556
2017-07-11T06:30:29.580Z,2568
2017-07-11T06:30:55.037Z,2764
2017-07-11T06:31:20.494Z,2836
2017-07-11T06:31:46.006Z,2500
2017-07-11T06:32:11.503Z,2464
2017-07-11T06:32:36.962Z,2552
2017-07-11T06:33:02.415Z,2480
2017-07-11T06:33:27.863Z,2280
2017-07-11T06:33:53.316Z,2208
2017-07-11T06:34:18.817Z,2424
2017-07-11T06:34:44.312Z,2748
2017-07-11T06:35:09.769Z,2992
2017-07-11T06:35:35.243Z,2968
2017-07-11T06:36:00.696Z,2880
2017-07-11T06:36:26.189Z,3008
2017-07-11T06:36:51.682Z,3032
2017-07-11T06:37:17.172Z,2860
2017-07-11T06:37:42.613Z,3112
2017-07-11T06:38:08.079Z,3492
2017-07-11T06:38:33.543Z,4232
2017-07-11T06:38:59.051Z,4392
2017-07-11T06:39:24.508Z,3944
2017-07-11T06:39:49.985Z,3632
2017-07-11T06:40:15.438Z,3692
2017-07-11T06:40:40.922Z,3608
2017-07-11T06:41:06.425Z,3660
2017-07-11T06:41:31.861Z,3700
2017-07-11T06:41:57.316Z,3984
2017-07-11T06:42:22.795Z,4012
2017-07-11T06:42:48.299Z,3472
2017-07-11T06:43:13.766Z,3272
2017-07-11T06:43:39.221Z,3324
2017-07-11T06:44:04.677Z,3220
2017-07-11T06:44:30.142Z,2924
2017-07-11T06:44:55.608Z,2780
2017-07-11T06:45:21.075Z,3032
2017-07-11T06:45:46.530Z,3260
2017-07-11T06:46:11.998Z,3408
2017-07-11T06:46:37.455Z,3544
2017-07-11T06:47:02.915Z,3816
2017-07-11T06:47:28.412Z,3804
2017-07-11T06:47:53.885Z,3556
2017-07-11T06:48:19.411Z,3620
2017-07-11T06:48:44.950Z,3592
2017-07-11T06:49:10.422Z,3544
2017-07-11T06:49:35.902Z,3692
2017-07-11T06:50:01.350Z,3796
2017-07-11T06:50:26.824Z,3880
2017-07-11T06:50:52.280Z,3940
2017-07-11T06:51:17.766Z,4004
2017-07-11T06:51:43.231Z,4092
2017-07-11T06:52:08.688Z,3952
2017-07-11T06:52:34.230Z,3684
2017-07-11T06:52:59.630Z,4036
2017-07-11T06:53:25.098Z,4280
2017-07-11T06:53:50.610Z,4004
2017-07-11T06:54:16.093Z,4076
2017-07-11T06:54:41.560Z,4184
2017-07-11T06:55:07.059Z,4112
2017-07-11T06:55:32.572Z,4300
2017-07-11T06:55:58.023Z,4224
2017-07-11T06:56:23.519Z,3836
2017-07-11T06:56:48.971Z,3664
2017-07-11T06:57:14.450Z,3864
2017-07-11T06:57:39.905Z,3832
2017-07-11T06:58:05.385Z,4136
2017-07-11T06:58:30.879Z,4348
2017-07-11T06:58:56.352Z,5008
2017-07-11T06:59:21.818Z,5300
2017-07-11T06:59:47.298Z,5492
2017-07-11T07:00:12.755Z,5232
2017-07-11T07:00:38.238Z,4604
2017-07-11T07:01:03.709Z,4328
2017-07-11T07:01:29.176Z,4272
2017-07-11T07:01:54.651Z,4652
2017-07-11T07:02:20.119Z,4796
2017-07-11T07:02:45.604Z,4440
2017-07-11T07:03:11.053Z,4212
2017-07-11T07:03:36.545Z,4212
2017-07-11T07:04:02.018Z,4280
2017-07-11T07:04:27.477Z,4208
2017-07-11T07:04:52.936Z,3984
2017-07-11T07:05:18.434Z,4020
2017-07-11T07:05:43.919Z,4312
2017-07-11T07:06:09.368Z,4488
2017-07-11T07:06:34.856Z,4896
2017-07-11T07:07:58.351Z,5496
2017-07-11T07:08:23.831Z,5308
2017-07-11T07:08:49.294Z,5064
2017-07-11T07:09:14.781Z,5092
2017-07-11T07:09:40.262Z,5304
2017-07-11T07:10:05.746Z,5436
2017-07-11T07:10:31.226Z,5480
2017-07-11T07:10:56.712Z,5780
2017-07-11T07:11:22.175Z,5732
2017-07-11T07:11:47.672Z,5220
2017-07-11T07:12:13.119Z,4756
2017-07-11T07:12:38.614Z,4416
2017-07-11T07:13:04.081Z,4320
2017-07-11T07:13:29.542Z,4268
2017-07-11T07:13:55.013Z,4484
2017-07-11T07:14:20.470Z,4688
2017-07-11T07:14:45.953Z,4392
2017-07-11T07:15:11.427Z,4380
2017-07-11T07:15:36.911Z,4400
2017-07-11T07:16:02.407Z,4352
2017-07-11T07:16:27.856Z,4588
2017-07-11T07:16:53.323Z,4636
2017-07-11T07:17:18.852Z,4472
2017-07-11T07:17:44.300Z,4000
2017-07-11T07:18:09.759Z,3952
2017-07-11T07:18:35.226Z,3888
2017-07-11T07:19:00.718Z,3740
2017-07-11T07:19:26.167Z,3688
2017-07-11T07:19:51.649Z,3540
2017-07-11T07:20:17.119Z,3660
2017-07-11T07:20:42.576Z,3968
2017-07-11T07:21:08.051Z,3816
2017-07-11T07:21:33.514Z,3420
2017-07-11T07:21:58.987Z,3824
2017-07-11T07:22:24.438Z,4532
2017-07-11T07:22:49.909Z,4460
2017-07-11T07:23:15.365Z,4220
2017-07-11T07:23:40.839Z,4052
2017-07-11T07:24:06.312Z,4376
2017-07-11T07:24:31.779Z,4440
2017-07-11T07:24:57.292Z,4484
2017-07-11T07:25:22.739Z,4816
2017-07-11T07:25:48.221Z,5824
2017-07-11T07:26:13.675Z,6228
2017-07-11T07:26:39.148Z,5620
2017-07-11T07:27:04.623Z,4288
2017-07-11T07:27:30.084Z,3656
2017-07-11T07:27:55.574Z,3980
2017-07-11T07:28:21.026Z,4092
2017-07-11T07:28:46.508Z,4060
2017-07-11T07:29:11.967Z,3988
2017-07-11T07:29:37.444Z,3584
2017-07-11T07:30:02.926Z,3600
2017-07-11T07:30:28.394Z,3740
2017-07-11T07:30:53.895Z,3576
2017-07-11T07:31:19.369Z,3672
2017-07-11T07:31:44.822Z,3564
2017-07-11T07:32:10.301Z,3328
2017-07-11T07:32:35.797Z,3240
2017-07-11T07:33:01.277Z,3192
2017-07-11T07:33:26.759Z,3256
2017-07-11T07:33:52.249Z,3288
2017-07-11T07:34:17.723Z,3284
2017-07-11T07:34:43.219Z,3140
2017-07-11T07:35:08.696Z,3000
2017-07-11T07:35:34.194Z,2692
2017-07-11T07:35:59.678Z,2552
2017-07-11T07:36:25.134Z,2428
2017-07-11T07:36:50.579Z,2416
2017-07-11T07:37:16.036Z,2388
2017-07-11T07:37:41.497Z,2428
2017-07-11T07:38:06.969Z,2232
2017-07-11T07:38:32.435Z,2116
2017-07-11T07:38:57.938Z,2124
2017-07-11T07:39:23.421Z,2316
2017-07-11T07:39:48.892Z,2500
2017-07-11T07:40:14.390Z,2576
2017-07-11T07:40:39.845Z,2672
2017-07-11T07:41:05.347Z,2688
2017-07-11T07:41:30.775Z,2504
2017-07-11T07:41:56.254Z,2436
2017-07-11T07:42:21.753Z,2756
2017-07-11T07:42:47.254Z,2952
2017-07-11T07:43:12.734Z,3024
2017-07-11T07:43:38.205Z,2996
2017-07-11T07:44:03.698Z,2852
2017-07-11T07:44:29.200Z,2856
2017-07-11T07:44:54.685Z,3076
2017-07-11T07:45:20.158Z,3784
2017-07-11T07:45:45.645Z,4364
2017-07-11T07:46:11.126Z,4248
2017-07-11T07:46:36.626Z,4472
2017-07-11T07:47:02.102Z,4736
2017-07-11T07:47:27.606Z,4668
2017-07-11T07:47:53.073Z,4912
2017-07-11T07:48:18.526Z,5416
2017-07-11T07:48:43.987Z,5192
2017-07-11T07:49:09.449Z,5012
2017-07-11T07:49:34.943Z,5252
2017-07-11T07:50:00.411Z,5096
2017-07-11T07:50:25.889Z,4956
2017-07-11T07:50:51.387Z,5472
2017-07-11T07:51:16.883Z,5752
2017-07-11T07:51:42.344Z,5948
2017-07-11T07:52:07.809Z,6028
2017-07-11T07:52:33.255Z,5476
2017-07-11T07:52:58.728Z,5204
2017-07-11T07:53:24.203Z,5904
2017-07-11T07:53:49.669Z,5740
2017-07-11T07:54:15.154Z,5776
2017-07-11T07:54:40.659Z,5220
2017-07-11T07:55:06.131Z,4684
2017-07-11T07:55:31.627Z,5524
2017-07-11T07:55:57.079Z,5776
2017-07-11T07:56:22.540Z,5432
2017-07-11T07:56:48.014Z,6096
2017-07-11T07:57:13.461Z,5236
2017-07-11T07:57:38.942Z,4132
2017-07-11T07:58:04.421Z,3768
2017-07-11T07:58:29.897Z,3488
2017-07-11T07:58:55.350Z,3516
2017-07-11T07:59:20.819Z,3868
2017-07-11T07:59:46.259Z,4052
2017-07-11T08:00:11.755Z,4304
2017-07-11T08:00:37.282Z,4284
2017-07-11T08:01:02.720Z,4464
2017-07-11T08:01:28.212Z,4536
2017-07-11T08:01:53.747Z,4020
2017-07-11T08:02:19.183Z,3752
2017-07-11T08:02:44.722Z,3704
2017-07-11T08:03:10.215Z,3532
2017-07-11T08:03:35.703Z,3476
2017-07-11T08:04:01.206Z,3332
2017-07-11T08:04:26.703Z,3312
2017-07-11T08:04:52.205Z,3140
2017-07-11T08:05:17.672Z,3480
2017-07-11T08:05:43.131Z,3772
2017-07-11T08:06:08.667Z,3948
2017-07-11T08:06:34.126Z,3924
2017-07-11T08:06:59.584Z,3904
2017-07-11T08:07:25.072Z,3968
2017-07-11T08:07:50.536Z,4280
2017-07-11T08:08:16.006Z,4108
2017-07-11T08:08:41.477Z,3876
2017-07-11T08:09:06.957Z,3520
2017-07-11T08:09:32.433Z,3600
2017-07-11T08:09:57.891Z,3460
2017-07-11T08:10:23.339Z,3432
2017-07-11T08:10:48.830Z,3780
2017-07-11T08:11:14.294Z,4148
2017-07-11T08:11:39.751Z,4792
2017-07-11T08:12:05.207Z,5460
2017-07-11T08:12:30.714Z,5056
2017-07-11T08:12:56.190Z,5252
2017-07-11T08:13:21.692Z,5692
2017-07-11T08:13:47.170Z,5556
2017-07-11T08:14:12.632Z,5204
2017-07-11T08:14:38.101Z,4548
2017-07-11T08:15:03.581Z,3932
2017-07-11T08:15:29.047Z,3888
2017-07-11T08:15:54.548Z,4208
2017-07-11T08:16:20.055Z,4536
2017-07-11T08:16:45.496Z,4348
2017-07-11T08:17:10.959Z,3932
2017-07-11T08:17:36.439Z,3896
2017-07-11T08:18:01.919Z,4024
2017-07-11T08:18:27.405Z,3736
2017-07-11T08:18:52.876Z,3456
2017-07-11T08:19:18.342Z,3336
2017-07-11T08:19:43.825Z,3300
2017-07-11T08:20:09.266Z,3452
2017-07-11T08:20:34.764Z,3636
2017-07-11T08:21:00.250Z,3748
2017-07-11T08:21:25.741Z,3440
2017-07-11T08:21:51.212Z,3296
2017-07-11T08:22:16.664Z,3216
2017-07-11T08:22:42.144Z,2888
2017-07-11T08:23:07.635Z,2816
2017-07-11T08:23:33.113Z,2592
2017-07-11T08:23:58.606Z,2588
2017-07-11T08:24:24.073Z,2872
2017-07-11T08:24:49.585Z,3232
2017-07-11T08:25:15.059Z,3536
2017-07-11T08:25:40.558Z,3796
2017-07-11T08:26:06.061Z,4224
2017-07-11T08:26:31.500Z,4140
2017-07-11T08:26:56.992Z,3748
2017-07-11T08:27:22.456Z,3532
2017-07-11T08:27:47.930Z,3412
2017-07-11T08:28:13.397Z,3484
2017-07-11T08:28:38.840Z,3584
2017-07-11T08:29:04.306Z,3360
2017-07-11T08:29:29.772Z,3012
2017-07-11T08:29:55.251Z,2988
2017-07-11T08:30:20.727Z,2764
2017-07-11T08:30:46.201Z,2700
2017-07-11T08:31:11.667Z,3024
2017-07-11T08:31:37.121Z,3352
2017-07-11T08:32:02.607Z,3512
2017-07-11T08:32:28.073Z,3648
2017-07-11T08:32:53.555Z,3568
2017-07-11T08:33:19.038Z,3624
2017-07-11T08:33:44.499Z,3488
2017-07-11T08:34:09.977Z,3336
2017-07-11T08:34:35.440Z,3148
2017-07-11T08:35:00.920Z,3396
2017-07-11T08:35:26.400Z,3552
2017-07-11T08:35:51.880Z,3616
2017-07-11T08:36:17.372Z,3584
2017-07-11T08:36:42.845Z,3764
2017-07-11T08:37:08.333Z,3948
2017-07-11T08:37:33.820Z,3740
2017-07-11T08:37:59.291Z,3900
2017-07-11T08:38:24.763Z,4120
2017-07-11T08:38:50.265Z,4384
2017-07-11T08:39:15.769Z,4188
2017-07-11T08:39:41.256Z,4128
2017-07-11T08:40:06.735Z,4084
2017-07-11T08:40:32.187Z,3984
2017-07-11T08:40:57.685Z,4356
2017-07-11T08:41:23.179Z,3956
2017-07-11T08:41:48.649Z,3780
2017-07-11T08:42:14.121Z,3540
2017-07-11T08:42:39.618Z,3276
2017-07-11T08:43:05.096Z,2940
2017-07-11T08:43:30.572Z,3140
2017-07-11T08:43:56.054Z,3568
2017-07-11T08:44:21.548Z,3952
2017-07-11T08:44:47.026Z,4048
2017-07-11T08:45:12.506Z,4348
2017-07-11T08:45:38.019Z,4704
2017-07-11T08:46:03.514Z,4748
2017-07-11T08:46:29.000Z,4660
2017-07-11T08:46:54.458Z,4860
2017-07-11T08:47:19.951Z,4908
2017-07-11T08:47:45.438Z,4432
2017-07-11T08:48:10.918Z,3908
2017-07-11T08:48:36.412Z,3716
2017-07-11T08:49:01.869Z,3448
2017-07-11T08:49:27.342Z,3188
2017-07-11T08:49:52.818Z,3208
2017-07-11T08:50:18.288Z,3580
2017-07-11T08:50:43.757Z,3816
2017-07-11T08:51:09.231Z,3976
2017-07-11T08:51:34.687Z,4132
2017-07-11T08:52:00.152Z,4040
2017-07-11T08:52:25.616Z,4180
2017-07-11T08:52:51.089Z,4032
2017-07-11T08:53:16.547Z,3880
2017-07-11T08:53:42.024Z,3812
2017-07-11T08:54:07.486Z,3840
2017-07-11T08:54:32.963Z,4076
2017-07-11T08:54:58.463Z,4532
2017-07-11T08:55:23.927Z,4104
2017-07-11T08:55:49.423Z,4640
2017-07-11T08:56:14.910Z,5716
2017-07-11T08:56:40.398Z,5624
2017-07-11T08:57:05.881Z,4504
2017-07-11T08:57:31.347Z,4544
2017-07-11T08:57:56.811Z,5060
2017-07-11T08:58:22.279Z,5756
2017-07-11T08:58:47.755Z,5648
2017-07-11T08:59:13.244Z,5448
2017-07-11T08:59:38.721Z,5032
2017-07-11T09:00:04.206Z,4064
2017-07-11T09:00:29.689Z,3648
2017-07-11T09:00:55.144Z,3844
2017-07-11T09:01:20.639Z,3944
2017-07-11T09:01:46.076Z,3664
2017-07-11T09:02:11.566Z,3904
2017-07-11T09:02:37.048Z,4752
2017-07-11T09:03:02.551Z,5332
2017-07-11T09:03:27.977Z,5784
2017-07-11T09:03:53.496Z,5796
2017-07-11T09:04:18.941Z,5872
2017-07-11T09:04:44.388Z,5648
2017-07-11T09:05:09.865Z,5532
2017-07-11T09:05:35.349Z,5444
2017-07-11T09:06:00.828Z,5000
2017-07-11T09:06:26.331Z,5244
2017-07-11T09:06:51.814Z,5392
2017-07-11T09:07:17.311Z,5432
2017-07-11T09:07:42.795Z,5544
2017-07-11T09:08:08.267Z,5616
2017-07-11T09:08:33.741Z,6276
2017-07-11T09:08:59.214Z,6708
2017-07-11T09:09:24.687Z,7576
2017-07-11T09:09:50.166Z,8328
2017-07-11T09:10:15.641Z,9740
2017-07-11T09:10:41.107Z,10336
2017-07-11T09:11:06.579Z,9432
2017-07-11T09:11:32.041Z,8976
2017-07-11T09:11:57.549Z,7944
2017-07-11T09:12:23.054Z,6344
2017-07-11T09:12:48.493Z,6036
2017-07-11T09:13:13.965Z,5364
2017-07-11T09:13:39.424Z,4188
2017-07-11T09:14:04.925Z,3544
2017-07-11T09:14:30.402Z,4012
2017-07-11T09:14:55.927Z,4432
2017-07-11T09:15:21.419Z,4596
2017-07-11T09:15:46.869Z,4844
2017-07-11T09:16:12.352Z,4416
2017-07-11T09:16:37.814Z,4400
2017-07-11T09:17:03.273Z,4904
2017-07-11T09:17:28.736Z,4972
2017-07-11T09:17:54.182Z,5056
2017-07-11T09:18:19.674Z,6024
2017-07-11T09:18:45.170Z,7276
2017-07-11T09:19:10.638Z,8104
2017-07-11T09:19:36.138Z,7504
2017-07-11T09:20:01.616Z,6932
2017-07-11T09:20:27.084Z,7344
2017-07-11T09:20:52.552Z,6776
2017-07-11T09:21:18.039Z,5648
2017-07-11T09:21:43.514Z,4764
2017-07-11T09:22:08.948Z,5404
2017-07-11T09:22:34.389Z,6600
2017-07-11T09:22:59.884Z,6900
2017-07-11T09:23:25.397Z,7224
2017-07-11T09:23:50.884Z,8356
2017-07-11T09:24:16.401Z,8660
2017-07-11T09:24:41.860Z,8324
2017-07-11T09:25:07.333Z,7712
2017-07-11T09:25:32.832Z,6940
2017-07-11T09:25:58.312Z,6868
2017-07-11T09:26:23.796Z,5956
2017-07-11T09:26:49.264Z,6764
2017-07-11T09:27:14.733Z,7000
2017-07-11T09:27:40.211Z,7056
2017-07-11T09:28:05.682Z,7204
2017-07-11T09:28:31.160Z,6660
2017-07-11T09:28:56.630Z,6884
2017-07-11T09:29:22.124Z,6568
2017-07-11T09:29:47.599Z,6456
2017-07-11T09:30:13.115Z,6804
2017-07-11T09:30:38.588Z,8184
2017-07-11T09:31:04.046Z,9884
2017-07-11T09:31:29.539Z,10080
2017-07-11T09:31:55.010Z,9008
2017-07-11T09:32:20.502Z,7748
2017-07-11T09:32:45.973Z,7144
2017-07-11T09:33:11.429Z,6668
2017-07-11T09:33:36.911Z,5560
2017-07-11T09:34:02.363Z,4940
2017-07-11T09:34:27.834Z,5336
2017-07-11T09:34:53.300Z,6552
2017-07-11T09:35:18.785Z,6056
2017-07-11T09:35:44.247Z,5632
2017-07-11T09:36:09.707Z,6040
2017-07-11T09:36:35.202Z,5932
2017-07-11T09:37:00.702Z,5920
2017-07-11T09:37:26.174Z,6112
2017-07-11T09:37:51.660Z,6756
2017-07-11T09:38:17.145Z,7468
2017-07-11T09:38:42.628Z,8076
2017-07-11T09:39:08.103Z,8544
2017-07-11T09:39:33.593Z,8708
2017-07-11T09:39:59.066Z,8728
2017-07-11T09:40:24.522Z,8256
2017-07-11T09:40:50.016Z,7516
2017-07-11T09:41:15.482Z,6304
2017-07-11T09:41:40.943Z,5460
2017-07-11T09:42:06.427Z,5540
2017-07-11T09:42:31.897Z,5376
2017-07-11T09:42:57.361Z,4800
2017-07-11T09:43:22.831Z,4652
2017-07-11T09:43:48.323Z,4692
2017-07-11T09:44:13.826Z,4180
2017-07-11T09:44:39.302Z,4116
2017-07-11T09:45:04.754Z,4836
2017-07-11T09:45:30.236Z,5808
2017-07-11T09:45:55.682Z,6312
2017-07-11T09:46:21.199Z,5564
2017-07-11T09:46:46.693Z,5772
2017-07-11T09:47:12.179Z,6608
2017-07-11T09:47:37.647Z,7764
2017-07-11T09:48:03.103Z,8048
2017-07-11T09:48:28.580Z,8320
2017-07-11T09:48:54.075Z,8560
2017-07-11T09:49:19.558Z,7560
2017-07-11T09:49:45.022Z,7608
2017-07-11T09:50:10.490Z,8872
2017-07-11T09:50:35.964Z,10052
2017-07-11T09:51:01.451Z,9616
2017-07-11T09:51:26.951Z,8884
2017-07-11T09:51:52.448Z,8040
2017-07-11T09:52:17.947Z,8132
2017-07-11T09:52:43.410Z,8676
2017-07-11T09:53:08.901Z,8568
2017-07-11T09:53:34.381Z,7928
2017-07-11T09:53:59.889Z,6804
2017-07-11T09:54:25.362Z,6868
2017-07-11T09:54:50.838Z,7836
2017-07-11T09:55:16.370Z,7720
2017-07-11T09:55:41.856Z,7768
2017-07-11T09:56:07.338Z,8092
2017-07-11T09:56:32.836Z,9428
2017-07-11T09:56:58.314Z,9684
2017-07-11T09:57:23.778Z,8256
2017-07-11T09:57:49.250Z,7756
2017-07-11T09:58:14.768Z,8376
2017-07-11T09:58:40.252Z,8704
2017-07-11T09:59:05.727Z,8332
2017-07-11T09:59:31.225Z,8420
2017-07-11T09:59:56.723Z,8284
2017-07-11T10:00:22.225Z,6900
2017-07-11T10:00:47.720Z,6488
2017-07-11T10:01:13.223Z,7072
2017-07-11T10:01:38.695Z,8056
2017-07-11T10:02:04.149Z,7880
2017-07-11T10:02:29.639Z,8064
2017-07-11T10:02:55.102Z,8296
2017-07-11T10:03:20.572Z,7928
2017-07-11T10:03:46.071Z,7072
2017-07-11T10:04:11.557Z,6420
2017-07-11T10:04:37.034Z,6004
2017-07-11T10:05:02.513Z,6192
2017-07-11T10:05:28.008Z,6488
2017-07-11T10:05:53.492Z,7160
2017-07-11T10:06:18.967Z,9976
2017-07-11T10:06:44.425Z,11752
2017-07-11T10:07:09.956Z,10932
2017-07-11T10:07:35.425Z,11040
2017-07-11T10:08:00.906Z,12240
2017-07-11T10:08:26.451Z,13092
2017-07-11T10:08:51.989Z,12604
2017-07-11T10:09:17.453Z,11952
2017-07-11T10:09:42.962Z,11720
2017-07-11T10:10:08.459Z,10992
2017-07-11T10:10:33.946Z,10524
2017-07-11T10:10:59.441Z,10688
2017-07-11T10:11:24.918Z,10292
2017-07-11T10:11:50.391Z,10432
2017-07-11T10:12:15.886Z,11348
2017-07-11T10:12:41.360Z,11900
2017-07-11T10:13:06.833Z,12128
2017-07-11T10:13:32.321Z,12220
2017-07-11T10:13:57.820Z,12200
2017-07-11T10:14:23.300Z,11912
2017-07-11T10:14:48.794Z,11428
2017-07-11T10:15:14.262Z,11180
2017-07-11T10:15:39.740Z,10516
2017-07-11T10:16:05.217Z,9552
2017-07-11T10:16:30.692Z,9816
2017-07-11T10:16:56.158Z,10500
2017-07-11T10:17:21.651Z,10432
2017-07-11T10:17:47.164Z,10388
2017-07-11T10:18:12.639Z,10372
2017-07-11T10:18:38.141Z,10440
2017-07-11T10:19:03.646Z,10776
2017-07-11T10:19:29.113Z,11088
2017-07-11T10:19:54.611Z,9992
2017-07-11T10:20:20.084Z,10396
2017-07-11T10:20:45.550Z,11248
2017-07-11T10:21:11.024Z,11512
2017-07-11T10:21:36.480Z,11536
2017-07-11T10:22:01.945Z,11604
2017-07-11T10:22:27.442Z,11064
2017-07-11T10:22:52.926Z,10288
2017-07-11T10:23:18.379Z,9508
2017-07-11T10:23:43.858Z,8364
2017-07-11T10:24:09.355Z,8024
2017-07-11T10:24:34.836Z,8828
2017-07-11T10:25:00.301Z,9532
2017-07-11T10:25:25.790Z,9756
2017-07-11T10:25:51.285Z,9940
2017-07-11T10:26:16.769Z,10136
2017-07-11T10:26:42.226Z,9148
2017-07-11T10:27:07.701Z,7840
2017-07-11T10:27:33.159Z,6844
2017-07-11T10:27:58.641Z,6276
2017-07-11T10:28:24.143Z,6616
2017-07-11T10:28:49.618Z,7616
2017-07-11T10:29:15.091Z,9040
2017-07-11T10:29:40.575Z,9816
2017-07-11T10:30:06.034Z,10136
2017-07-11T10:30:31.531Z,9140
2017-07-11T10:30:57.018Z,8304
2017-07-11T10:31:22.478Z,8304
2017-07-11T10:31:47.954Z,8780
2017-07-11T10:32:13.431Z,10028
2017-07-11T10:32:38.903Z,10240
2017-07-11T10:33:04.398Z,9456
2017-07-11T10:33:29.883Z,8512
2017-07-11T10:33:55.346Z,7452
2017-07-11T10:34:20.812Z,6492
2017-07-11T10:34:46.299Z,6000
2017-07-11T10:35:11.814Z,5816
2017-07-11T10:35:37.290Z,5920
2017-07-11T10:36:02.758Z,5896
2017-07-11T10:36:28.256Z,5820
2017-07-11T10:36:53.732Z,5768
2017-07-11T10:37:19.224Z,5576
2017-07-11T10:37:44.722Z,5428
2017-07-11T10:38:10.179Z,5316
2017-07-11T10:38:35.653Z,5272
2017-07-11T10:39:01.151Z,5144
2017-07-11T10:39:26.656Z,5428
2017-07-11T10:39:52.119Z,5316
2017-07-11T10:40:17.607Z,4896
2017-07-11T10:40:43.094Z,4728
2017-07-11T10:41:08.578Z,4824
2017-07-11T10:41:34.055Z,4728
2017-07-11T10:41:59.549Z,4624
2017-07-11T10:42:25.020Z,4444
2017-07-11T10:42:50.460Z,4256
2017-07-11T10:43:15.946Z,4152
2017-07-11T10:43:41.408Z,4072
2017-07-11T10:44:06.892Z,4112
2017-07-11T10:44:32.377Z,4128
2017-07-11T10:44:57.827Z,4112
2017-07-11T10:45:23.310Z,4208
2017-07-11T10:45:48.815Z,4568
2017-07-11T10:46:14.223Z,4516
2017-07-11T10:46:39.694Z,5444
2017-07-11T10:47:05.177Z,6184
2017-07-11T10:47:30.634Z,5632
2017-07-11T10:47:56.135Z,4532
2017-07-11T10:48:21.639Z,3536
2017-07-11T10:48:47.124Z,3928
2017-07-11T10:49:12.595Z,3908
2017-07-11T10:49:38.089Z,4412
2017-07-11T10:50:03.568Z,5412
2017-07-11T10:50:29.051Z,5468
2017-07-11T10:50:54.567Z,4780
2017-07-11T10:51:20.018Z,4280
2017-07-11T10:51:45.518Z,4424
2017-07-11T10:52:11.006Z,4576
2017-07-11T10:52:36.495Z,5168
2017-07-11T10:53:01.986Z,5936
2017-07-11T10:53:27.451Z,5776
2017-07-11T10:53:52.930Z,5692
2017-07-11T10:54:18.395Z,5632
2017-07-11T10:54:43.946Z,5260
2017-07-11T10:55:09.349Z,5752
2017-07-11T10:55:34.843Z,6276
2017-07-11T10:56:00.319Z,6476
2017-07-11T10:56:25.789Z,5812
2017-07-11T10:56:51.247Z,5300
2017-07-11T10:57:16.747Z,5940
2017-07-11T10:57:42.235Z,6312
2017-07-11T10:58:07.734Z,5604
2017-07-11T10:58:33.207Z,5512
2017-07-11T10:58:58.685Z,4992
2017-07-11T10:59:24.125Z,4872
2017-07-11T10:59:49.649Z,5004
2017-07-11T11:00:15.087Z,4868
2017-07-11T11:00:40.593Z,4220
2017-07-11T11:01:06.042Z,3940
2017-07-11T11:01:31.534Z,4756
2017-07-11T11:01:56.996Z,4744
2017-07-11T11:02:22.460Z,4240
2017-07-11T11:02:47.933Z,4172
2017-07-11T11:03:13.419Z,4408
2017-07-11T11:03:38.908Z,5116
2017-07-11T11:04:04.364Z,5732
2017-07-11T11:04:29.865Z,5564
2017-07-11T11:04:55.345Z,4912
2017-07-11T11:05:20.805Z,4480
2017-07-11T11:05:46.284Z,4108
2017-07-11T11:06:11.756Z,4176
2017-07-11T11:06:37.221Z,4356
2017-07-11T11:07:02.723Z,4792
2017-07-11T11:07:28.202Z,4932
2017-07-11T11:07:53.688Z,4592
2017-07-11T11:08:19.146Z,5000
2017-07-11T11:08:44.641Z,5576
2017-07-11T11:09:10.121Z,5324
2017-07-11T11:09:35.594Z,4676
2017-07-11T11:10:01.108Z,4416
2017-07-11T11:10:26.587Z,4456
2017-07-11T11:10:52.092Z,4592
2017-07-11T11:11:17.564Z,4568